Time;durP1;ratioP1;P1;durP2;ratioP2;P2;SDS_P1;SDS_P2;PMS_P1;PMS_P2;Temp;Humidity;BMP_temperature;BMP_pressure;BME280_temperature;BME280_humidity;BME280_pressure;Samples;Min_cycle;Max_cycle;Signal;HPM_P1;HPM_P2
2021/12/20 00:02:18;;;;;;;22.90;3.33;;;4.70;99.90;;;;;;5014694;28;20037;-81
2021/12/20 00:04:46;;;;;;;28.90;4.03;;;4.70;99.90;;;;;;5032731;28;20091;-80
2021/12/20 00:07:12;;;;;;;25.55;4.88;;;4.60;99.90;;;;;;5018195;28;20056;-81
2021/12/20 00:09:38;;;;;;;32.28;4.18;;;4.60;99.90;;;;;;5034575;28;20132;-80
2021/12/20 00:12:04;;;;;;;20.02;3.60;;;4.70;99.90;;;;;;5034695;28;20049;-80
2021/12/20 00:14:29;;;;;;;18.80;4.15;;;4.70;99.90;;;;;;5034353;28;20060;-80
2021/12/20 00:16:55;;;;;;;23.27;5.32;;;4.80;99.90;;;;;;5034409;28;20038;-81
2021/12/20 00:19:23;;;;;;;24.30;3.88;;;4.80;99.90;;;;;;5017965;28;20416;-80
2021/12/20 00:21:49;;;;;;;32.25;4.97;;;4.80;99.90;;;;;;5018178;28;20049;-81
2021/12/20 00:24:14;;;;;;;23.52;3.35;;;4.80;99.90;;;;;;5034352;28;20049;-80
2021/12/20 00:26:40;;;;;;;25.17;3.95;;;4.90;99.90;;;;;;5017805;28;20042;-81
2021/12/20 00:29:06;;;;;;;28.25;3.97;;;4.90;99.90;;;;;;5034223;28;20407;-81
2021/12/20 00:31:32;;;;;;;21.73;4.50;;;5.00;99.90;;;;;;5017660;28;20482;-81
2021/12/20 00:33:57;;;;;;;19.60;2.90;;;5.00;99.90;;;;;;5001345;28;20053;-80
2021/12/20 00:36:26;;;;;;;23.27;3.05;;;5.00;99.90;;;;;;5017711;28;20071;-80
2021/12/20 00:41:36;;;;;;;23.17;3.92;;;5.10;99.90;;;;;;5034029;28;20056;-80
2021/12/20 00:44:01;;;;;;;25.02;3.38;;;5.20;99.90;;;;;;5034296;28;20041;-81
2021/12/20 00:46:27;;;;;;;30.35;4.05;;;5.20;99.90;;;;;;5017506;28;20053;-80
2021/12/20 00:48:53;;;;;;;21.65;3.15;;;5.20;99.90;;;;;;5017762;28;20472;-80
2021/12/20 00:51:18;;;;;;;19.63;3.63;;;5.30;99.90;;;;;;5033846;28;20046;-80
2021/12/20 00:53:44;;;;;;;21.52;3.63;;;5.30;99.90;;;;;;5017267;28;20045;-80
2021/12/20 00:56:10;;;;;;;18.63;3.08;;;5.30;99.90;;;;;;5033820;28;20080;-81
2021/12/20 00:58:36;;;;;;;20.90;3.60;;;5.30;99.90;;;;;;5017174;28;20137;-82
2021/12/20 01:01:03;;;;;;;20.33;2.85;;;5.20;99.90;;;;;;5017239;28;20045;-80
2021/12/20 01:03:30;;;;;;;20.00;3.85;;;5.20;99.90;;;;;;5017443;28;20391;-80
2021/12/20 01:05:57;;;;;;;18.40;2.45;;;5.20;99.90;;;;;;5017482;28;20045;-80
2021/12/20 01:08:23;;;;;;;19.70;3.10;;;5.20;99.90;;;;;;5033403;28;20064;-80
2021/12/20 01:10:52;;;;;;;21.15;2.47;;;5.20;99.90;;;;;;5000676;28;20103;-80
2021/12/20 01:13:21;;;;;;;12.48;2.10;;;5.20;99.90;;;;;;5033178;28;20083;-80
2021/12/20 01:15:50;;;;;;;19.90;2.78;;;5.20;99.90;;;;;;5032859;28;20492;-81
2021/12/20 01:18:17;;;;;;;18.42;3.92;;;5.30;99.90;;;;;;5017519;28;20506;-81
2021/12/20 01:20:43;;;;;;;19.05;2.05;;;5.30;99.90;;;;;;5016816;28;20320;-80
2021/12/20 01:23:11;;;;;;;21.50;4.50;;;5.40;99.90;;;;;;5017062;28;20045;-81
2021/12/20 01:25:37;;;;;;;11.90;2.00;;;5.30;99.90;;;;;;5033191;28;20167;-80
2021/12/20 01:28:05;;;;;;;11.52;1.95;;;5.40;99.90;;;;;;5033133;28;20098;-80
2021/12/20 01:30:31;;;;;;;12.23;1.70;;;5.40;99.90;;;;;;5033079;28;20041;-80
2021/12/20 01:32:57;;;;;;;13.85;2.13;;;5.40;99.90;;;;;;5032835;28;20096;-81
2021/12/20 01:35:25;;;;;;;14.90;2.40;;;5.40;99.90;;;;;;5000331;28;20116;-81
2021/12/20 01:37:52;;;;;;;17.58;2.20;;;5.40;99.90;;;;;;5016586;28;20056;-80
2021/12/20 01:40:19;;;;;;;9.70;1.60;;;5.50;99.90;;;;;;5016592;28;20504;-80
2021/12/20 01:42:46;;;;;;;10.18;2.10;;;5.30;99.90;;;;;;5032838;28;20049;-81
2021/12/20 01:45:17;;;;;;;12.70;1.83;;;5.30;99.90;;;;;;5032869;28;20042;-81
2021/12/20 01:47:47;;;;;;;9.10;1.50;;;5.20;99.90;;;;;;5032718;28;20255;-80
2021/12/20 01:50:21;;;;;;;8.50;1.45;;;5.10;99.90;;;;;;5016309;28;20342;-81
2021/12/20 01:52:48;;;;;;;19.85;2.85;;;5.10;99.90;;;;;;5016995;28;20123;-80
2021/12/20 01:55:16;;;;;;;16.75;1.98;;;5.10;99.90;;;;;;5032923;28;20365;-80
2021/12/20 01:57:43;;;;;;;11.45;1.90;;;5.00;99.90;;;;;;5032665;28;20396;-80
2021/12/20 02:00:23;;;;;;;11.40;1.73;;;5.00;99.90;;;;;;5016047;28;20050;-81
2021/12/20 02:02:57;;;;;;;12.57;2.67;;;5.00;99.90;;;;;;5032693;28;20096;-80
2021/12/20 02:05:29;;;;;;;14.25;1.63;;;5.00;99.90;;;;;;5032706;28;20099;-81
2021/12/20 02:08:13;;;;;;;10.68;2.20;;;5.00;90.50;;;;;;5032659;28;20549;-80
2021/12/20 02:10:40;;;;;;;12.70;1.63;;;5.00;97.40;;;;;;5016007;28;20045;-81
2021/12/20 02:13:06;;;;;;;9.75;2.40;;;5.00;89.50;;;;;;5032206;28;20412;-81
2021/12/20 02:15:32;;;;;;;16.00;1.52;;;5.00;93.90;;;;;;5016185;28;20064;-80
2021/12/20 02:17:57;;;;;;;11.63;1.73;;;4.90;97.30;;;;;;5015701;28;20042;-81
2021/12/20 02:20:30;;;;;;;23.95;3.08;;;4.90;99.90;;;;;;5015799;28;20500;-80
2021/12/20 02:22:57;;;;;;;20.27;2.10;;;4.80;99.90;;;;;;5048695;28;20053;-82
2021/12/20 02:25:24;;;;;;;13.80;1.67;;;4.90;99.90;;;;;;5015989;28;20396;-81
2021/12/20 02:27:50;;;;;;;19.17;3.10;;;4.80;99.90;;;;;;5015462;28;20045;-80
2021/12/20 02:30:40;;;;;;;16.45;2.00;;;4.90;99.90;;;;;;5032061;28;20041;-81
2021/12/20 02:38:37;;;;;;;18.38;3.15;;;4.70;99.90;;;;;;5017898;28;20056;-81
2021/12/20 02:41:10;;;;;;;14.18;1.90;;;4.70;99.90;;;;;;5031910;28;20345;-80
2021/12/20 02:43:42;;;;;;;23.60;2.80;;;4.60;99.90;;;;;;5031781;28;20042;-80
2021/12/20 02:46:47;;;;;;;15.90;2.47;;;4.60;99.90;;;;;;5031782;28;20092;-80
2021/12/20 02:49:14;;;;;;;15.48;1.98;;;4.50;99.90;;;;;;5031902;28;20060;-80
2021/12/20 02:51:42;;;;;;;23.02;3.13;;;4.40;99.90;;;;;;5015167;28;20072;-80
2021/12/20 02:54:09;;;;;;;18.30;2.53;;;4.40;99.90;;;;;;5031798;28;20065;-81
2021/12/20 02:56:35;;;;;;;25.55;2.70;;;4.20;99.90;;;;;;5015100;28;20052;-81
2021/12/20 02:59:03;;;;;;;16.15;2.65;;;4.10;99.90;;;;;;5031667;28;20072;-81
2021/12/20 03:01:28;;;;;;;15.98;2.47;;;4.00;99.90;;;;;;5015606;28;20136;-81
2021/12/20 03:03:56;;;;;;;19.42;2.63;;;3.90;99.90;;;;;;4998759;28;20136;-80
2021/12/20 03:06:37;;;;;;;16.50;2.00;;;3.80;99.90;;;;;;4998922;28;20045;-80
2021/12/20 03:09:05;;;;;;;16.70;2.10;;;3.70;99.90;;;;;;5015073;28;20045;-81
2021/12/20 03:11:30;;;;;;;13.60;2.35;;;3.60;99.90;;;;;;5031593;28;20200;-80
2021/12/20 03:14:08;;;;;;;28.58;3.78;;;3.60;99.90;;;;;;5014910;28;20395;-80
2021/12/20 03:16:34;;;;;;;18.63;2.08;;;3.50;99.90;;;;;;5000196;28;20049;-81
2021/12/20 03:19:02;;;;;;;12.82;1.88;;;3.50;99.90;;;;;;5015132;28;20055;-80
2021/12/20 03:21:27;;;;;;;11.25;1.73;;;3.60;99.90;;;;;;5031368;28;20144;-80
2021/12/20 03:23:53;;;;;;;18.17;1.92;;;3.50;99.90;;;;;;5031372;28;20136;-80
2021/12/20 03:26:19;;;;;;;19.65;2.33;;;3.50;99.90;;;;;;5014904;28;20042;-80
2021/12/20 03:28:44;;;;;;;13.35;1.52;;;3.40;99.90;;;;;;5031331;28;20483;-80
2021/12/20 03:31:12;;;;;;;13.70;1.88;;;3.40;99.90;;;;;;4998571;28;20073;-80
2021/12/20 03:33:38;;;;;;;14.85;1.80;;;3.30;99.90;;;;;;5014923;28;20046;-81
2021/12/20 03:36:04;;;;;;;9.20;1.40;;;3.30;99.90;;;;;;5014759;28;20423;-81
2021/12/20 03:38:30;;;;;;;17.73;2.00;;;3.40;99.90;;;;;;5014782;28;20049;-79
2021/12/20 03:40:55;;;;;;;11.37;1.73;;;3.30;99.90;;;;;;5034817;28;20052;-80
2021/12/20 03:43:24;;;;;;;9.93;1.30;;;3.30;96.70;;;;;;5018817;28;20085;-80
2021/12/20 03:45:56;;;;;;;16.25;2.38;;;3.30;95.30;;;;;;5034998;28;20124;-81
2021/12/20 03:48:22;;;;;;;13.77;1.85;;;3.30;95.20;;;;;;5035004;28;20053;-79
2021/12/20 03:50:48;;;;;;;21.80;2.30;;;3.30;93.60;;;;;;5034788;28;20048;-81
2021/12/20 03:53:13;;;;;;;14.38;1.45;;;3.30;88.70;;;;;;5034780;28;20042;-81
2021/12/20 03:55:39;;;;;;;12.07;2.03;;;3.30;74.20;;;;;;5018706;28;20562;-81
2021/12/20 03:58:05;;;;;;;16.37;2.90;;;3.30;72.90;;;;;;5034688;28;20133;-81
2021/12/20 04:00:32;;;;;;;14.20;2.03;;;3.30;68.30;;;;;;5034821;28;20049;-80
2021/12/20 04:02:58;;;;;;;17.63;2.88;;;3.20;62.20;;;;;;5034893;28;20089;-81
2021/12/20 04:05:24;;;;;;;14.87;1.70;;;3.10;59.40;;;;;;5034676;28;20064;-81
2021/12/20 04:07:50;;;;;;;13.52;1.75;;;3.00;64.00;;;;;;5018164;28;20041;-80
2021/12/20 04:10:16;;;;;;;11.52;1.58;;;2.80;72.70;;;;;;5018100;28;20045;-81
2021/12/20 04:12:42;;;;;;;14.53;1.80;;;2.60;76.30;;;;;;5034475;28;20053;-81
2021/12/20 04:15:08;;;;;;;20.63;2.93;;;2.40;92.00;;;;;;5018190;28;20052;-80
2021/12/20 04:17:34;;;;;;;16.50;2.97;;;2.30;99.30;;;;;;5034688;28;20045;-79
2021/12/20 04:20:01;;;;;;;17.63;2.37;;;2.30;99.90;;;;;;5018106;28;20081;-79
2021/12/20 04:22:26;;;;;;;14.33;2.50;;;2.30;99.90;;;;;;5034409;28;20056;-81
2021/12/20 04:24:52;;;;;;;23.63;2.87;;;2.40;99.90;;;;;;5018225;28;20053;-80
2021/12/20 04:27:18;;;;;;;16.87;2.13;;;2.50;99.90;;;;;;5017888;28;20079;-81
2021/12/20 04:29:43;;;;;;;15.03;2.53;;;2.60;99.90;;;;;;5034222;28;20045;-80
2021/12/20 04:32:09;;;;;;;13.67;2.37;;;2.70;99.90;;;;;;5034399;28;20136;-81
2021/12/20 04:34:35;;;;;;;18.25;2.17;;;2.80;99.90;;;;;;5001109;28;20081;-80
2021/12/20 04:37:03;;;;;;;10.73;2.00;;;2.90;99.90;;;;;;5017604;28;20061;-81
2021/12/20 04:39:31;;;;;;;9.25;1.58;;;3.00;99.90;;;;;;5001868;28;20504;-80
2021/12/20 04:41:56;;;;;;;13.85;2.80;;;3.10;99.90;;;;;;5017412;28;20046;-80
2021/12/20 04:44:22;;;;;;;17.67;1.92;;;3.10;99.90;;;;;;5017613;28;20385;-81
2021/12/20 04:46:48;;;;;;;11.20;1.70;;;3.10;99.90;;;;;;5017660;28;20128;-80
2021/12/20 04:49:14;;;;;;;16.42;2.25;;;3.20;99.90;;;;;;5017669;28;20049;-80
2021/12/20 04:51:40;;;;;;;22.52;2.80;;;3.30;99.90;;;;;;5016144;28;20042;-80
2021/12/20 04:54:05;;;;;;;13.70;2.67;;;3.30;99.90;;;;;;5017003;28;20627;-80
2021/12/20 04:56:31;;;;;;;20.25;2.70;;;3.30;99.90;;;;;;5033803;28;20060;-80
2021/12/20 04:58:57;;;;;;;20.55;3.47;;;3.30;99.90;;;;;;5033647;28;20127;-80
2021/12/20 05:01:22;;;;;;;12.98;1.80;;;3.30;99.90;;;;;;5033931;28;20045;-81
2021/12/20 05:03:48;;;;;;;13.63;2.03;;;3.30;99.90;;;;;;5033625;28;20077;-80
2021/12/20 05:06:14;;;;;;;28.35;3.15;;;3.30;99.90;;;;;;5017087;28;20045;-81
2021/12/20 05:08:48;;;;;;;18.35;2.50;;;3.40;99.90;;;;;;5000654;28;20037;-80
2021/12/20 05:11:14;;;;;;;10.82;2.80;;;3.40;99.90;;;;;;5018526;28;20096;-80
2021/12/20 05:13:40;;;;;;;13.00;1.73;;;3.40;99.90;;;;;;5033410;28;20045;-81
2021/12/20 05:16:06;;;;;;;17.20;2.63;;;3.40;99.90;;;;;;5017156;28;20132;-80
2021/12/20 05:18:31;;;;;;;18.55;2.55;;;3.40;99.90;;;;;;5016886;28;20507;-80
2021/12/20 05:20:57;;;;;;;19.58;2.33;;;3.40;99.90;;;;;;5016736;28;20056;-80
2021/12/20 05:23:23;;;;;;;16.42;2.03;;;3.40;99.90;;;;;;5016969;28;20049;-81
2021/12/20 05:25:49;;;;;;;16.20;2.53;;;3.40;99.90;;;;;;5016844;28;20042;-80
2021/12/20 05:28:15;;;;;;;17.08;2.28;;;3.30;99.90;;;;;;5016638;28;20045;-79
2021/12/20 05:30:41;;;;;;;11.63;2.17;;;3.30;99.90;;;;;;5033051;28;20038;-79
2021/12/20 05:33:07;;;;;;;13.70;3.17;;;3.20;99.90;;;;;;5033057;28;20450;-80
2021/12/20 05:35:33;;;;;;;13.30;2.30;;;3.10;99.90;;;;;;5033241;28;20053;-81
2021/12/20 05:37:58;;;;;;;25.65;3.60;;;3.00;99.90;;;;;;5016394;28;20374;-80
2021/12/20 05:40:25;;;;;;;15.50;2.20;;;2.90;99.90;;;;;;5033223;28;20053;-80
2021/12/20 05:42:51;;;;;;;14.68;1.77;;;2.80;99.90;;;;;;5032848;28;20045;-80
2021/12/20 05:45:18;;;;;;;19.40;2.03;;;2.70;99.90;;;;;;5016547;28;20566;-80
2021/12/20 05:47:45;;;;;;;18.33;1.80;;;2.50;99.90;;;;;;5032988;28;20523;-80
2021/12/20 05:50:13;;;;;;;11.17;1.73;;;2.40;99.90;;;;;;5032729;28;20055;-80
2021/12/20 05:52:38;;;;;;;10.97;1.40;;;2.20;99.90;;;;;;5016486;28;20049;-79
2021/12/20 05:55:06;;;;;;;8.53;1.40;;;2.10;99.90;;;;;;5032522;28;20381;-79
2021/12/20 05:57:33;;;;;;;17.87;1.80;;;1.90;99.90;;;;;;5032648;28;20038;-80
2021/12/20 05:59:59;;;;;;;8.73;1.60;;;1.80;99.90;;;;;;5016126;28;20041;-81
2021/12/20 06:02:25;;;;;;;11.27;1.03;;;1.70;99.90;;;;;;5048773;28;20116;-80
2021/12/20 06:04:51;;;;;;;18.37;1.83;;;1.60;99.90;;;;;;5032629;28;20053;-81
2021/12/20 06:07:21;;;;;;;14.77;2.07;;;1.50;99.90;;;;;;5016286;28;20038;-80
2021/12/20 06:09:48;;;;;;;10.57;2.03;;;1.40;99.90;;;;;;5016100;28;20045;-79
2021/12/20 06:12:14;;;;;;;22.13;3.83;;;1.20;99.90;;;;;;5015836;28;20091;-80
2021/12/20 06:14:40;;;;;;;15.07;1.93;;;1.10;99.90;;;;;;5032320;28;20041;-81
2021/12/20 06:17:07;;;;;;;23.90;2.00;;;0.90;99.90;;;;;;5015731;28;20106;-80
2021/12/20 06:19:33;;;;;;;21.53;2.83;;;0.80;99.90;;;;;;5032331;28;20042;-80
2021/12/20 06:21:59;;;;;;;24.37;3.10;;;0.70;99.90;;;;;;5032183;28;20420;-79
2021/12/20 06:24:25;;;;;;;17.50;2.53;;;0.70;99.90;;;;;;5032175;28;20042;-79
2021/12/20 06:26:51;;;;;;;12.70;2.10;;;0.60;99.90;;;;;;5016292;28;20045;-80
2021/12/20 06:29:21;;;;;;;23.47;3.27;;;0.50;99.90;;;;;;5015889;28;20124;-79
2021/12/20 06:31:46;;;;;;;23.43;2.50;;;0.40;99.90;;;;;;5015648;28;20048;-81
2021/12/20 06:34:13;;;;;;;28.00;2.57;;;0.40;99.90;;;;;;5015476;28;20447;-81
2021/12/20 06:36:38;;;;;;;29.30;2.63;;;0.30;99.90;;;;;;5031783;28;20128;-81
2021/12/20 06:39:05;;;;;;;20.93;4.17;;;0.20;99.90;;;;;;5031932;28;20124;-80
2021/12/20 06:41:31;;;;;;;24.37;2.63;;;0.20;99.90;;;;;;5015444;28;20041;-80
2021/12/20 06:43:57;;;;;;;17.63;2.80;;;0.20;99.90;;;;;;5015253;28;20081;-80
2021/12/20 06:46:25;;;;;;;19.90;3.87;;;0.30;99.90;;;;;;5015405;28;20085;-80
2021/12/20 06:48:51;;;;;;;16.87;2.50;;;0.20;99.90;;;;;;5031760;28;20065;-80
2021/12/20 06:51:16;;;;;;;23.97;3.37;;;0.20;99.90;;;;;;5015660;28;20046;-80
2021/12/20 06:53:42;;;;;;;20.87;3.47;;;0.10;99.90;;;;;;5031596;28;20112;-80
2021/12/20 06:56:09;;;;;;;22.17;2.90;;;0.10;99.90;;;;;;5031678;28;20507;-80
2021/12/20 06:58:35;;;;;;;22.97;3.60;;;0.10;99.90;;;;;;5031491;28;20052;-80
2021/12/20 07:01:00;;;;;;;24.40;3.20;;;0.10;99.90;;;;;;5031565;28;20038;-80
2021/12/20 07:03:26;;;;;;;24.00;3.10;;;0.00;99.90;;;;;;5015187;28;20487;-80
2021/12/20 07:05:52;;;;;;;21.80;3.40;;;0.10;99.90;;;;;;5031555;28;20107;-80
2021/12/20 07:08:18;;;;;;;26.77;3.00;;;-0.20;99.90;;;;;;5031613;28;20511;-81
2021/12/20 07:10:44;;;;;;;22.03;3.30;;;-0.20;99.90;;;;;;5031755;28;20053;-80
2021/12/20 07:13:10;;;;;;;27.17;3.57;;;-0.30;99.90;;;;;;5015156;28;20112;-79
2021/12/20 07:15:37;;;;;;;30.57;3.43;;;-0.40;99.90;;;;;;5034670;28;20038;-80
2021/12/20 07:18:03;;;;;;;32.03;4.53;;;-0.40;99.90;;;;;;5002803;28;20080;-80
2021/12/20 07:20:29;;;;;;;18.87;3.67;;;-0.30;99.90;;;;;;5035522;28;20045;-80
2021/12/20 07:22:54;;;;;;;32.90;5.00;;;0.10;99.90;;;;;;5018906;28;20180;-81
2021/12/20 07:25:21;;;;;;;24.40;3.70;;;-0.10;99.90;;;;;;5018963;28;20056;-79
2021/12/20 07:27:49;;;;;;;35.00;3.77;;;-0.20;99.90;;;;;;5019163;28;20446;-79
2021/12/20 07:30:15;;;;;;;31.40;5.67;;;-0.30;99.90;;;;;;5035589;28;20517;-79
2021/12/20 07:32:41;;;;;;;49.03;19.43;;;-0.50;99.90;;;;;;5035106;28;20067;-80
2021/12/20 07:35:07;;;;;;;39.17;10.93;;;-0.50;99.90;;;;;;5034888;28;20050;-80
2021/12/20 07:37:33;;;;;;;37.17;5.83;;;-0.50;99.90;;;;;;5035530;28;20535;-79
2021/12/20 07:39:59;;;;;;;38.10;5.27;;;-0.40;99.90;;;;;;5035161;28;20053;-81
2021/12/20 07:42:24;;;;;;;31.60;5.93;;;-0.30;99.90;;;;;;5018611;28;20065;-80
2021/12/20 07:44:50;;;;;;;33.60;5.30;;;-0.30;99.90;;;;;;5035077;28;20056;-81
2021/12/20 07:47:16;;;;;;;20.17;4.70;;;-0.30;99.90;;;;;;5018866;28;20091;-81
2021/12/20 07:49:42;;;;;;;25.23;4.93;;;-0.40;99.90;;;;;;5035058;28;20052;-81
2021/12/20 07:52:08;;;;;;;34.37;6.03;;;-0.40;99.90;;;;;;5034829;28;20041;-80
2021/12/20 07:54:34;;;;;;;22.47;4.20;;;-0.40;99.90;;;;;;5018308;28;20380;-81
2021/12/20 07:57:00;;;;;;;23.13;4.67;;;-0.40;99.90;;;;;;5016912;28;20056;-81
2021/12/20 07:59:26;;;;;;;36.80;6.77;;;-0.40;99.90;;;;;;5017830;28;20373;-80
2021/12/20 08:01:52;;;;;;;26.63;4.50;;;-0.50;99.90;;;;;;5001682;28;20084;-80
2021/12/20 08:04:18;;;;;;;27.77;5.90;;;-0.40;99.90;;;;;;5017811;28;20509;-80
2021/12/20 08:06:44;;;;;;;25.73;5.27;;;-0.30;99.90;;;;;;5034758;28;20439;-81
2021/12/20 08:09:11;;;;;;;33.57;7.73;;;-0.40;99.90;;;;;;5018356;28;20037;-80
2021/12/20 08:11:38;;;;;;;40.07;6.40;;;-0.40;99.90;;;;;;5034637;28;20049;-80
2021/12/20 08:14:04;;;;;;;23.63;5.13;;;-0.40;99.90;;;;;;5034300;28;20045;-81
2021/12/20 08:16:30;;;;;;;27.80;5.80;;;-0.40;99.90;;;;;;5035081;28;20514;-79
2021/12/20 08:18:55;;;;;;;26.97;6.23;;;-0.40;99.90;;;;;;5018070;28;20132;-80
2021/12/20 08:21:21;;;;;;;34.87;6.70;;;-0.40;99.90;;;;;;5034490;28;20046;-80
2021/12/20 08:23:48;;;;;;;30.03;6.80;;;-0.40;99.90;;;;;;5017780;28;20048;-79
2021/12/20 08:26:14;;;;;;;32.73;5.60;;;-0.40;99.90;;;;;;5017535;28;20052;-80
2021/12/20 08:28:40;;;;;;;22.03;5.43;;;-0.50;99.90;;;;;;5034483;28;20049;-80
2021/12/20 08:31:07;;;;;;;31.53;5.40;;;-0.50;99.90;;;;;;5034419;28;20045;-80
2021/12/20 08:33:34;;;;;;;27.00;6.07;;;-0.40;99.90;;;;;;5017729;28;20082;-80
2021/12/20 08:36:05;;;;;;;37.47;5.83;;;-0.40;99.90;;;;;;5017661;28;20053;-80
2021/12/20 08:38:31;;;;;;;22.17;5.23;;;-0.30;99.90;;;;;;5017725;28;20062;-81
2021/12/20 08:40:57;;;;;;;36.10;6.50;;;-0.30;99.90;;;;;;5017641;28;20037;-79
2021/12/20 08:43:24;;;;;;;33.40;6.57;;;-0.20;99.90;;;;;;5034196;28;20048;-79
2021/12/20 08:45:50;;;;;;;37.00;7.50;;;-0.10;99.90;;;;;;5033907;28;20128;-79
2021/12/20 08:48:16;;;;;;;34.33;6.70;;;-0.10;99.90;;;;;;5017292;28;20037;-81
2021/12/20 08:50:42;;;;;;;26.53;6.37;;;0.00;99.90;;;;;;5017396;28;20038;-80
2021/12/20 08:53:10;;;;;;;29.73;7.93;;;0.20;99.90;;;;;;5017223;28;20053;-79
2021/12/20 08:55:36;;;;;;;37.20;8.67;;;0.20;99.90;;;;;;5033972;28;20075;-80
2021/12/20 08:58:03;;;;;;;46.83;9.63;;;0.30;99.90;;;;;;5017584;28;20383;-81
2021/12/20 09:00:32;;;;;;;52.93;10.13;;;0.30;99.90;;;;;;5017154;28;20041;-79
2021/12/20 09:02:59;;;;;;;39.13;8.27;;;0.40;99.90;;;;;;5050224;28;20053;-79
2021/12/20 09:05:26;;;;;;;37.63;7.03;;;0.40;99.90;;;;;;5017421;28;20049;-80
2021/12/20 09:07:52;;;;;;;26.60;7.53;;;0.50;99.90;;;;;;5033701;28;20045;-81
2021/12/20 09:10:18;;;;;;;35.73;7.87;;;0.50;99.90;;;;;;5016090;28;20056;-81
2021/12/20 09:12:45;;;;;;;34.43;7.00;;;0.60;99.90;;;;;;5049812;28;20049;-81
2021/12/20 09:15:17;;;;;;;24.27;6.70;;;0.60;99.90;;;;;;5015946;28;20053;-81
2021/12/20 09:17:48;;;;;;;34.30;7.00;;;0.70;99.90;;;;;;5016580;28;20056;-79
2021/12/20 09:20:15;;;;;;;35.20;6.63;;;0.80;99.90;;;;;;5033207;28;20504;-80
2021/12/20 09:22:57;;;;;;;25.80;6.40;;;0.80;99.90;;;;;;5049986;28;20045;-79
2021/12/20 09:25:26;;;;;;;36.60;7.63;;;0.80;99.90;;;;;;5032802;28;20045;-81
2021/12/20 09:27:54;;;;;;;38.40;7.17;;;0.80;99.90;;;;;;5016744;28;20480;-79
2021/12/20 09:30:22;;;;;;;31.80;5.23;;;0.90;99.90;;;;;;5049616;28;20141;-79
2021/12/20 09:32:48;;;;;;;19.73;5.00;;;1.00;99.90;;;;;;5033127;28;20457;-81
2021/12/20 09:35:14;;;;;;;42.90;6.97;;;1.10;99.90;;;;;;5016544;28;20053;-80
2021/12/20 09:37:40;;;;;;;26.57;6.07;;;1.20;99.90;;;;;;5048678;28;20132;-80
2021/12/20 09:40:09;;;;;;;40.27;7.97;;;1.30;99.90;;;;;;5033162;28;20129;-81
2021/12/20 09:42:36;;;;;;;28.80;6.73;;;1.30;99.90;;;;;;5033059;28;20049;-81
2021/12/20 09:45:04;;;;;;;35.00;6.90;;;1.40;99.90;;;;;;5050049;28;20402;-80
2021/12/20 09:47:33;;;;;;;35.70;6.63;;;1.60;99.90;;;;;;5049970;28;20077;-81
2021/12/20 09:50:04;;;;;;;42.67;8.20;;;1.70;99.90;;;;;;5033122;28;20478;-79
2021/12/20 09:52:30;;;;;;;32.47;6.95;;;1.80;99.90;;;;;;5049214;28;20049;-80
2021/12/20 09:54:56;;;;;;;43.43;9.10;;;2.00;99.90;;;;;;5016412;28;20044;-81
2021/12/20 09:57:23;;;;;;;42.47;9.57;;;2.00;99.90;;;;;;5049233;28;20084;-81
2021/12/20 09:59:51;;;;;;;40.47;8.23;;;2.10;99.90;;;;;;5032682;28;20050;-80
2021/12/20 10:02:20;;;;;;;38.38;7.95;;;2.20;99.90;;;;;;5016202;28;20618;-81
2021/12/20 10:04:46;;;;;;;35.92;8.60;;;2.20;99.90;;;;;;5016195;28;20049;-81
2021/12/20 10:07:12;;;;;;;43.90;9.10;;;2.30;99.90;;;;;;5049106;28;20045;-80
2021/12/20 10:09:41;;;;;;;39.78;7.30;;;2.40;99.90;;;;;;5015843;28;20041;-79
2021/12/20 10:12:14;;;;;;;48.77;7.03;;;2.50;99.90;;;;;;5015740;28;20042;-81
2021/12/20 10:15:04;;;;;;;38.58;9.68;;;2.60;99.90;;;;;;5016207;28;20484;-79
2021/12/20 10:17:59;;;;;;;43.15;7.60;;;2.70;99.90;;;;;;5049090;28;20069;-80
2021/12/20 10:20:33;;;;;;;41.17;6.90;;;2.80;99.90;;;;;;4997657;28;20057;-81
2021/12/20 10:23:19;;;;;;;36.28;6.72;;;2.80;99.90;;;;;;5048682;28;21088;-81
2021/12/20 10:25:48;;;;;;;39.72;6.80;;;3.00;99.90;;;;;;5048687;28;20049;-79
2021/12/20 10:28:18;;;;;;;41.05;7.40;;;3.10;99.90;;;;;;5048840;28;20077;-81
2021/12/20 10:30:47;;;;;;;32.08;4.95;;;3.10;99.90;;;;;;5015839;28;20504;-79
2021/12/20 10:33:18;;;;;;;45.50;8.40;;;3.20;99.90;;;;;;5015651;28;20122;-79
2021/12/20 10:35:59;;;;;;;35.33;5.68;;;3.20;99.90;;;;;;5015561;28;20397;-81
2021/12/20 10:38:31;;;;;;;36.75;6.68;;;3.30;99.90;;;;;;5048645;28;20499;-81
2021/12/20 10:41:04;;;;;;;42.40;7.60;;;3.40;99.90;;;;;;5048666;28;20045;-81
2021/12/20 10:43:41;;;;;;;33.45;7.65;;;3.50;99.90;;;;;;5032347;28;20071;-81
2021/12/20 10:46:14;;;;;;;43.47;8.18;;;3.60;99.90;;;;;;5015343;28;20087;-78
2021/12/20 10:48:40;;;;;;;44.30;11.05;;;3.60;99.90;;;;;;5048171;28;20057;-79
2021/12/20 10:51:16;;;;;;;35.45;9.00;;;3.70;99.90;;;;;;5031687;28;20171;-79
2021/12/20 10:53:54;;;;;;;66.65;18.15;;;3.80;99.90;;;;;;5031394;28;20045;-80
2021/12/20 10:56:20;;;;;;;45.92;11.35;;;3.80;99.90;;;;;;5015207;28;20080;-79
2021/12/20 10:58:46;;;;;;;90.78;29.52;;;4.00;99.90;;;;;;5031643;28;20556;-81
2021/12/20 11:01:23;;;;;;;81.82;22.08;;;4.00;99.90;;;;;;5031589;28;20041;-79
2021/12/20 11:03:59;;;;;;;39.40;8.27;;;4.10;99.90;;;;;;5048181;28;20045;-80
2021/12/20 11:06:36;;;;;;;29.17;7.70;;;4.20;99.90;;;;;;5031463;28;20045;-81
2021/12/20 11:09:14;;;;;;;49.88;13.27;;;4.20;99.90;;;;;;5048058;28;20053;-79
2021/12/20 11:11:45;;;;;;;52.35;13.25;;;4.30;99.90;;;;;;5031260;28;20045;-79
2021/12/20 11:14:11;;;;;;;55.97;11.18;;;4.40;99.90;;;;;;5031398;28;20549;-81
2021/12/20 11:16:49;;;;;;;46.72;8.48;;;4.50;99.90;;;;;;5029958;28;20073;-81
2021/12/20 11:19:21;;;;;;;45.42;9.88;;;4.50;99.90;;;;;;5014520;28;20132;-79
2021/12/20 11:21:59;;;;;;;45.00;7.88;;;4.60;99.90;;;;;;5031539;28;20496;-81
2021/12/20 11:24:51;;;;;;;38.78;5.40;;;4.70;99.90;;;;;;5015364;28;20128;-79
2021/12/20 11:27:25;;;;;;;40.42;5.72;;;4.70;99.90;;;;;;5014741;28;20057;-81
2021/12/20 11:29:53;;;;;;;34.75;8.73;;;4.70;99.90;;;;;;5048353;28;20377;-79
2021/12/20 11:32:22;;;;;;;46.03;6.95;;;4.80;99.90;;;;;;5047942;28;20037;-80
2021/12/20 11:34:48;;;;;;;25.98;5.30;;;4.90;99.90;;;;;;5014884;28;20095;-80
2021/12/20 11:37:17;;;;;;;34.92;6.05;;;4.90;99.90;;;;;;5014691;28;20060;-79
2021/12/20 11:39:43;;;;;;;27.27;4.97;;;5.00;99.90;;;;;;5047682;28;20050;-80
2021/12/20 11:42:12;;;;;;;33.92;6.93;;;5.00;99.90;;;;;;5047726;28;20050;-81
2021/12/20 11:44:39;;;;;;;48.25;11.45;;;5.10;99.90;;;;;;4999139;28;20041;-80
2021/12/20 11:47:10;;;;;;;53.70;18.55;;;5.10;99.90;;;;;;5031147;28;20081;-81
2021/12/20 11:49:37;;;;;;;41.88;10.02;;;5.20;99.90;;;;;;5031349;28;20044;-79
2021/12/20 11:52:05;;;;;;;41.25;6.32;;;5.20;99.90;;;;;;5031304;28;20407;-79
2021/12/20 11:54:35;;;;;;;35.10;7.78;;;5.20;99.90;;;;;;5014972;28;20049;-79
2021/12/20 11:57:01;;;;;;;31.48;7.00;;;5.30;99.90;;;;;;5047897;28;20134;-81
2021/12/20 11:59:46;;;;;;;36.83;7.80;;;5.30;99.90;;;;;;5014672;28;20053;-79
2021/12/20 12:02:24;;;;;;;28.52;5.38;;;5.40;99.90;;;;;;5034891;28;20136;-81
2021/12/20 12:05:01;;;;;;;38.35;9.07;;;5.40;99.90;;;;;;5018365;28;20079;-81
2021/12/20 12:07:29;;;;;;;81.72;31.42;;;5.50;99.90;;;;;;5051329;28;20076;-79
2021/12/20 12:09:58;;;;;;;111.53;45.10;;;5.60;99.90;;;;;;5034951;28;20395;-80
2021/12/20 12:12:26;;;;;;;41.83;8.90;;;5.60;99.90;;;;;;5034777;28;20508;-79
2021/12/20 12:15:05;;;;;;;33.30;6.78;;;5.60;99.90;;;;;;5051254;28;20049;-81
2021/12/20 12:17:49;;;;;;;136.32;68.18;;;5.70;99.90;;;;;;5016775;28;20051;-79
2021/12/20 12:20:49;;;;;;;35.95;10.45;;;5.80;99.90;;;;;;5049039;28;20107;-79
2021/12/20 12:23:26;;;;;;;27.20;5.70;;;5.80;99.90;;;;;;5013598;28;20065;-79
2021/12/20 12:25:55;;;;;;;21.55;4.95;;;5.80;99.90;;;;;;5033023;28;20045;-79
2021/12/20 12:28:27;;;;;;;31.65;10.85;;;5.80;99.90;;;;;;5016998;28;20037;-79
2021/12/20 12:31:04;;;;;;;26.83;6.53;;;6.20;99.90;;;;;;5033879;28;20124;-79
2021/12/20 12:33:36;;;;;;;19.63;3.63;;;7.20;99.90;;;;;;5031788;28;20121;-81
2021/12/20 12:36:09;;;;;;;20.55;3.83;;;8.10;99.90;;;;;;5032216;28;20140;-79
2021/12/20 12:38:48;;;;;;;18.77;3.25;;;8.70;99.90;;;;;;5032961;28;20100;-79
2021/12/20 12:41:22;;;;;;;25.98;4.72;;;9.70;99.90;;;;;;5032642;28;20041;-80
2021/12/20 12:44:08;;;;;;;15.05;2.88;;;10.30;99.90;;;;;;5033043;28;20037;-81
2021/12/20 12:46:41;;;;;;;18.60;2.78;;;11.00;99.90;;;;;;5049032;28;20526;-82
2021/12/20 12:49:22;;;;;;;15.45;3.13;;;11.70;99.90;;;;;;5047246;28;20060;-80
2021/12/20 12:51:58;;;;;;;12.82;2.75;;;12.20;27.60;;;;;;5031882;28;20056;-82
2021/12/20 12:54:33;;;;;;;17.65;3.20;;;12.60;1.00;;;;;;5048201;28;20037;-81
2021/12/20 12:57:10;;;;;;;12.90;3.22;;;12.50;1.00;;;;;;5032275;28;20048;-80
2021/12/20 12:59:37;;;;;;;16.73;2.80;;;12.40;1.00;;;;;;5033847;28;20424;-82
2021/12/20 13:02:19;;;;;;;17.17;4.18;;;12.60;1.00;;;;;;5033281;28;20079;-81